Terminal Aerodrome Forecast
Issued by NWS Quad Cities IA IL

Home | Current Version | Previous Version | Text Only | Print | Product List | Glossary On
Versions: 1 2 3 4 5 6 7 8 9 10 11 12 13 14 15 16 17 18 19 20 21 22 23 24 25 26 27 28 29 30 31 32 33 34
000
FTUS43 KDVN 172035 AAA
TAFDBQ
TAF AMD
KDBQ 172035Z 1721/1818 17014KT 1 1/2SM -RA BR OVC004
      TEMPO 1721/1722 1SM -DZ BR OVC007
     FM172200 16010KT 2SM -RA OVC005
     FM180300 18006KT 1SM -RA BR OVC003
     FM180800 36014G22KT 2SM -RA BR OVC003
     FM181300 33018G27KT 2SM -SN OVC008
     FM181600 33020G30KT P6SM OVC020=

USA.gov is the U.S. government's official web portal to all federal, state and local government web resources and services.